sensor_id;sensor_type;location;lat;lon;timestamp;pressure;altitude;pressure_sealevel;temperature;humidity
11413;BME280;5762;43.256;26.960;2022-09-03T00:01:39;99539.81;;;20.93;100.00
11413;BME280;5762;43.256;26.960;2022-09-03T00:04:09;99540.50;;;20.87;100.00
11413;BME280;5762;43.256;26.960;2022-09-03T00:06:38;99538.07;;;20.82;100.00
11413;BME280;5762;43.256;26.960;2022-09-03T00:09:12;99535.83;;;20.74;100.00
11413;BME280;5762;43.256;26.960;2022-09-03T00:11:39;99538.67;;;20.68;100.00
11413;BME280;5762;43.256;26.960;2022-09-03T00:14:06;99535.02;;;20.60;100.00
11413;BME280;5762;43.256;26.960;2022-09-03T00:16:40;99539.55;;;20.49;100.00
11413;BME280;5762;43.256;26.960;2022-09-03T00:19:05;99542.65;;;20.34;100.00
11413;BME280;5762;43.256;26.960;2022-09-03T00:24:05;99549.67;;;20.32;100.00
11413;BME280;5762;43.256;26.960;2022-09-03T00:26:34;99558.83;;;20.17;100.00
11413;BME280;5762;43.256;26.960;2022-09-03T00:29:06;99562.08;;;19.99;100.00
11413;BME280;5762;43.256;26.960;2022-09-03T00:31:36;99569.54;;;19.89;100.00
11413;BME280;5762;43.256;26.960;2022-09-03T00:34:06;99579.02;;;19.82;100.00
11413;BME280;5762;43.256;26.960;2022-09-03T00:36:36;99583.06;;;19.79;100.00
11413;BME280;5762;43.256;26.960;2022-09-03T00:39:04;99588.87;;;19.73;100.00
11413;BME280;5762;43.256;26.960;2022-09-03T00:54:05;99607.95;;;19.57;100.00
11413;BME280;5762;43.256;26.960;2022-09-03T00:59:06;99606.48;;;19.34;100.00
11413;BME280;5762;43.256;26.960;2022-09-03T01:01:35;99614.85;;;19.31;100.00
11413;BME280;5762;43.256;26.960;2022-09-03T01:19:03;99622.47;;;19.03;100.00
11413;BME280;5762;43.256;26.960;2022-09-03T01:24:03;99618.27;;;18.99;100.00
11413;BME280;5762;43.256;26.960;2022-09-03T01:26:31;99620.78;;;18.98;100.00
11413;BME280;5762;43.256;26.960;2022-09-03T01:31:30;99626.22;;;19.04;100.00
11413;BME280;5762;43.256;26.960;2022-09-03T01:34:03;99623.53;;;19.08;100.00
11413;BME280;5762;43.256;26.960;2022-09-03T01:46:28;99597.69;;;19.09;100.00
11413;BME280;5762;43.256;26.960;2022-09-03T01:51:27;99573.31;;;19.04;100.00
11413;BME280;5762;43.256;26.960;2022-09-03T01:58:59;99565.92;;;19.08;100.00
11413;BME280;5762;43.256;26.960;2022-09-03T02:01:26;99560.16;;;19.13;100.00
11413;BME280;5762;43.256;26.960;2022-09-03T02:03:55;99558.28;;;19.17;100.00
11413;BME280;5762;43.256;26.960;2022-09-03T02:06:25;99564.43;;;19.20;100.00
11413;BME280;5762;43.256;26.960;2022-09-03T02:08:56;99558.14;;;19.20;100.00
11413;BME280;5762;43.256;26.960;2022-09-03T02:11:25;99560.98;;;19.33;100.00
11413;BME280;5762;43.256;26.960;2022-09-03T02:13:55;99558.72;;;19.19;100.00
11413;BME280;5762;43.256;26.960;2022-09-03T02:16:27;99562.56;;;19.24;100.00
11413;BME280;5762;43.256;26.960;2022-09-03T02:18:57;99560.30;;;19.11;100.00
11413;BME280;5762;43.256;26.960;2022-09-03T02:21:44;99577.11;;;19.09;100.00
11413;BME280;5762;43.256;26.960;2022-09-03T02:24:11;99586.59;;;19.21;100.00
11413;BME280;5762;43.256;26.960;2022-09-03T02:26:40;99585.28;;;19.15;100.00
11413;BME280;5762;43.256;26.960;2022-09-03T02:29:10;99587.97;;;19.21;100.00
11413;BME280;5762;43.256;26.960;2022-09-03T02:31:40;99600.41;;;19.34;100.00
11413;BME280;5762;43.256;26.960;2022-09-03T02:34:10;99589.14;;;19.30;100.00
11413;BME280;5762;43.256;26.960;2022-09-03T02:36:40;99592.97;;;19.35;100.00
11413;BME280;5762;43.256;26.960;2022-09-03T02:39:09;99585.02;;;19.30;100.00
11413;BME280;5762;43.256;26.960;2022-09-03T02:41:38;99578.48;;;19.09;100.00
11413;BME280;5762;43.256;26.960;2022-09-03T02:44:11;99575.74;;;19.09;100.00
11413;BME280;5762;43.256;26.960;2022-09-03T02:46:38;99574.00;;;18.91;100.00
11413;BME280;5762;43.256;26.960;2022-09-03T02:49:07;99571.25;;;18.91;100.00
11413;BME280;5762;43.256;26.960;2022-09-03T02:54:06;99575.34;;;18.82;100.00
11413;BME280;5762;43.256;26.960;2022-09-03T02:56:36;99575.61;;;18.67;100.00
11413;BME280;5762;43.256;26.960;2022-09-03T02:59:05;99581.17;;;18.70;100.00
11413;BME280;5762;43.256;26.960;2022-09-03T03:01:34;99573.36;;;18.72;100.00
11413;BME280;5762;43.256;26.960;2022-09-03T03:04:04;99576.98;;;18.77;100.00
11413;BME280;5762;43.256;26.960;2022-09-03T03:06:33;99587.23;;;18.80;100.00
11413;BME280;5762;43.256;26.960;2022-09-03T03:09:02;99595.16;;;18.59;100.00
11413;BME280;5762;43.256;26.960;2022-09-03T03:11:31;99595.03;;;18.46;100.00
11413;BME280;5762;43.256;26.960;2022-09-03T03:14:01;99601.97;;;18.50;100.00
11413;BME280;5762;43.256;26.960;2022-09-03T03:16:30;99600.48;;;18.36;100.00
11413;BME280;5762;43.256;26.960;2022-09-03T03:18:59;99606.13;;;18.59;100.00
11413;BME280;5762;43.256;26.960;2022-09-03T03:21:28;99613.02;;;18.53;100.00
11413;BME280;5762;43.256;26.960;2022-09-03T03:23:57;99615.80;;;18.47;100.00
11413;BME280;5762;43.256;26.960;2022-09-03T03:26:26;99608.86;;;18.43;100.00
11413;BME280;5762;43.256;26.960;2022-09-03T03:28:57;99612.40;;;18.44;100.00
11413;BME280;5762;43.256;26.960;2022-09-03T03:31:26;99609.70;;;18.60;100.00
11413;BME280;5762;43.256;26.960;2022-09-03T03:33:56;99606.42;;;18.70;100.00
11413;BME280;5762;43.256;26.960;2022-09-03T03:36:27;99608.15;;;18.68;100.00
11413;BME280;5762;43.256;26.960;2022-09-03T03:39:11;99606.83;;;18.72;100.00
11413;BME280;5762;43.256;26.960;2022-09-03T03:41:41;99623.11;;;18.81;100.00
11413;BME280;5762;43.256;26.960;2022-09-03T03:44:11;99630.18;;;18.82;100.00
11413;BME280;5762;43.256;26.960;2022-09-03T03:46:41;99622.39;;;18.84;100.00
11413;BME280;5762;43.256;26.960;2022-09-03T03:49:10;99627.70;;;18.92;100.00
11413;BME280;5762;43.256;26.960;2022-09-03T03:51:39;99624.78;;;18.85;100.00
11413;BME280;5762;43.256;26.960;2022-09-03T03:54:08;99621.36;;;18.98;100.00
11413;BME280;5762;43.256;26.960;2022-09-03T03:56:38;99615.88;;;18.98;100.00
11413;BME280;5762;43.256;26.960;2022-09-03T03:59:07;99612.61;;;18.92;100.00
11413;BME280;5762;43.256;26.960;2022-09-03T04:01:36;99611.05;;;19.11;100.00
11413;BME280;5762;43.256;26.960;2022-09-03T04:04:07;99607.65;;;19.07;100.00
11413;BME280;5762;43.256;26.960;2022-09-03T04:06:40;99600.08;;;19.01;100.00
11413;BME280;5762;43.256;26.960;2022-09-03T04:11:46;99599.75;;;18.87;100.00
11413;BME280;5762;43.256;26.960;2022-09-03T04:14:16;99607.81;;;19.05;100.00
11413;BME280;5762;43.256;26.960;2022-09-03T04:16:45;99618.28;;;19.19;100.00
11413;BME280;5762;43.256;26.960;2022-09-03T04:19:15;99615.02;;;19.13;100.00
11413;BME280;5762;43.256;26.960;2022-09-03T04:24:15;99611.48;;;19.13;100.00
11413;BME280;5762;43.256;26.960;2022-09-03T04:26:44;99607.02;;;19.14;100.00
11413;BME280;5762;43.256;26.960;2022-09-03T04:29:13;99603.20;;;19.19;100.00
11413;BME280;5762;43.256;26.960;2022-09-03T04:31:42;99608.92;;;19.29;100.00
11413;BME280;5762;43.256;26.960;2022-09-03T04:34:11;99605.25;;;19.31;100.00
11413;BME280;5762;43.256;26.960;2022-09-03T04:36:41;99602.42;;;19.28;100.00
11413;BME280;5762;43.256;26.960;2022-09-03T04:39:10;99597.09;;;19.35;100.00
11413;BME280;5762;43.256;26.960;2022-09-03T04:41:39;99603.22;;;19.28;100.00
11413;BME280;5762;43.256;26.960;2022-09-03T04:46:38;99604.41;;;19.12;100.00
11413;BME280;5762;43.256;26.960;2022-09-03T04:49:07;99608.96;;;19.14;100.00
11413;BME280;5762;43.256;26.960;2022-09-03T04:51:36;99599.99;;;19.07;100.00
11413;BME280;5762;43.256;26.960;2022-09-03T04:54:05;99607.09;;;19.18;100.00
11413;BME280;5762;43.256;26.960;2022-09-03T04:59:06;99601.55;;;18.89;100.00
11413;BME280;5762;43.256;26.960;2022-09-03T05:01:36;99615.24;;;19.14;100.00
11413;BME280;5762;43.256;26.960;2022-09-03T05:04:05;99606.97;;;19.30;100.00
11413;BME280;5762;43.256;26.960;2022-09-03T05:06:35;99606.08;;;19.16;100.00
11413;BME280;5762;43.256;26.960;2022-09-03T05:09:04;99614.15;;;18.99;100.00
11413;BME280;5762;43.256;26.960;2022-09-03T05:11:33;99620.13;;;18.95;100.00
11413;BME280;5762;43.256;26.960;2022-09-03T05:14:02;99627.73;;;19.02;100.00
11413;BME280;5762;43.256;26.960;2022-09-03T05:16:32;99626.49;;;18.99;100.00
11413;BME280;5762;43.256;26.960;2022-09-03T05:19:01;99630.97;;;19.07;100.00
11413;BME280;5762;43.256;26.960;2022-09-03T05:21:30;99633.23;;;18.86;100.00
11413;BME280;5762;43.256;26.960;2022-09-03T05:24:00;99647.83;;;18.74;100.00
11413;BME280;5762;43.256;26.960;2022-09-03T05:26:31;99652.69;;;18.81;100.00
11413;BME280;5762;43.256;26.960;2022-09-03T05:29:03;99646.45;;;18.74;100.00
11413;BME280;5762;43.256;26.960;2022-09-03T05:31:33;99649.41;;;18.91;100.00
11413;BME280;5762;43.256;26.960;2022-09-03T05:34:03;99651.67;;;18.95;100.00
11413;BME280;5762;43.256;26.960;2022-09-03T05:36:34;99641.77;;;18.91;100.00
11413;BME280;5762;43.256;26.960;2022-09-03T05:39:04;99644.99;;;18.87;100.00
11413;BME280;5762;43.256;26.960;2022-09-03T05:41:33;99649.38;;;18.82;100.00
11413;BME280;5762;43.256;26.960;2022-09-03T05:44:02;99648.58;;;18.81;100.00
11413;BME280;5762;43.256;26.960;2022-09-03T05:46:33;99652.47;;;18.80;100.00
11413;BME280;5762;43.256;26.960;2022-09-03T05:49:03;99642.98;;;18.68;100.00
11413;BME280;5762;43.256;26.960;2022-09-03T05:51:32;99641.63;;;18.78;100.00
11413;BME280;5762;43.256;26.960;2022-09-03T05:54:01;99642.96;;;18.84;100.00
11413;BME280;5762;43.256;26.960;2022-09-03T05:56:31;99649.50;;;18.95;100.00
11413;BME280;5762;43.256;26.960;2022-09-03T05:59:02;99638.97;;;18.97;100.00
11413;BME280;5762;43.256;26.960;2022-09-03T06:01:31;99642.37;;;19.00;100.00
11413;BME280;5762;43.256;26.960;2022-09-03T06:04:02;99638.13;;;19.02;100.00
11413;BME280;5762;43.256;26.960;2022-09-03T06:06:31;99635.16;;;19.11;100.00
11413;BME280;5762;43.256;26.960;2022-09-03T06:09:02;99632.28;;;19.14;100.00
11413;BME280;5762;43.256;26.960;2022-09-03T06:11:31;99643.01;;;19.28;100.00
11413;BME280;5762;43.256;26.960;2022-09-03T06:14:01;99646.20;;;19.50;100.00
11413;BME280;5762;43.256;26.960;2022-09-03T06:16:31;99637.30;;;19.72;100.00
11413;BME280;5762;43.256;26.960;2022-09-03T06:19:01;99646.59;;;19.87;100.00
11413;BME280;5762;43.256;26.960;2022-09-03T06:21:30;99647.39;;;19.87;100.00
11413;BME280;5762;43.256;26.960;2022-09-03T06:24:00;99642.31;;;20.08;100.00
11413;BME280;5762;43.256;26.960;2022-09-03T06:26:29;99639.58;;;20.08;100.00
11413;BME280;5762;43.256;26.960;2022-09-03T06:28:58;99635.97;;;20.27;100.00
11413;BME280;5762;43.256;26.960;2022-09-03T06:31:27;99636.55;;;20.27;100.00
11413;BME280;5762;43.256;26.960;2022-09-03T06:33:56;99637.50;;;20.25;100.00
11413;BME280;5762;43.256;26.960;2022-09-03T06:36:25;99642.83;;;20.37;100.00
11413;BME280;5762;43.256;26.960;2022-09-03T06:38:55;99648.50;;;20.57;100.00
11413;BME280;5762;43.256;26.960;2022-09-03T06:41:25;99644.73;;;20.43;100.00
11413;BME280;5762;43.256;26.960;2022-09-03T06:43:56;99644.55;;;20.45;100.00
11413;BME280;5762;43.256;26.960;2022-09-03T06:46:24;99633.28;;;20.63;100.00
11413;BME280;5762;43.256;26.960;2022-09-03T06:48:53;99631.54;;;20.65;100.00
11413;BME280;5762;43.256;26.960;2022-09-03T06:51:23;99634.30;;;20.32;100.00
11413;BME280;5762;43.256;26.960;2022-09-03T06:56:24;99632.12;;;20.32;100.00
11413;BME280;5762;43.256;26.960;2022-09-03T06:58:55;99632.97;;;20.46;100.00
11413;BME280;5762;43.256;26.960;2022-09-03T07:10:17;99646.62;;;20.19;100.00
11413;BME280;5762;43.256;26.960;2022-09-03T07:12:50;99654.80;;;20.16;100.00
11413;BME280;5762;43.256;26.960;2022-09-03T07:15:20;99651.73;;;20.30;100.00
11413;BME280;5762;43.256;26.960;2022-09-03T07:17:49;99648.67;;;20.45;100.00
11413;BME280;5762;43.256;26.960;2022-09-03T07:20:18;99647.20;;;20.51;100.00
11413;BME280;5762;43.256;26.960;2022-09-03T07:22:48;99647.67;;;20.66;100.00
11413;BME280;5762;43.256;26.960;2022-09-03T07:25:17;99633.18;;;20.83;100.00
11413;BME280;5762;43.256;26.960;2022-09-03T07:27:49;99630.66;;;20.97;100.00
11413;BME280;5762;43.256;26.960;2022-09-03T07:30:18;99634.37;;;21.08;100.00
11413;BME280;5762;43.256;26.960;2022-09-03T07:32:47;99631.17;;;21.19;100.00
11413;BME280;5762;43.256;26.960;2022-09-03T07:35:16;99631.75;;;21.19;100.00
11413;BME280;5762;43.256;26.960;2022-09-03T07:37:46;99630.88;;;21.24;100.00
11413;BME280;5762;43.256;26.960;2022-09-03T07:40:15;99630.45;;;21.09;100.00
11413;BME280;5762;43.256;26.960;2022-09-03T07:42:44;99618.70;;;21.12;100.00
11413;BME280;5762;43.256;26.960;2022-09-03T07:45:14;99637.60;;;21.27;100.00
11413;BME280;5762;43.256;26.960;2022-09-03T07:47:45;99621.88;;;21.01;100.00
11413;BME280;5762;43.256;26.960;2022-09-03T07:50:13;99659.23;;;21.02;100.00
11413;BME280;5762;43.256;26.960;2022-09-03T07:52:42;99659.74;;;20.71;100.00
11413;BME280;5762;43.256;26.960;2022-09-03T07:55:12;99663.14;;;20.74;100.00
11413;BME280;5762;43.256;26.960;2022-09-03T07:57:41;99673.03;;;20.92;100.00
11413;BME280;5762;43.256;26.960;2022-09-03T08:00:11;99671.48;;;20.68;100.00
11413;BME280;5762;43.256;26.960;2022-09-03T08:02:40;99676.92;;;20.65;100.00
11413;BME280;5762;43.256;26.960;2022-09-03T08:05:09;99656.50;;;20.33;100.00
11413;BME280;5762;43.256;26.960;2022-09-03T08:07:38;99671.64;;;20.43;100.00
11413;BME280;5762;43.256;26.960;2022-09-03T08:10:08;99673.59;;;20.43;100.00
11413;BME280;5762;43.256;26.960;2022-09-03T08:12:37;99673.94;;;20.31;100.00
11413;BME280;5762;43.256;26.960;2022-09-03T08:15:06;99684.30;;;20.61;100.00
11413;BME280;5762;43.256;26.960;2022-09-03T08:17:35;99670.74;;;20.85;100.00
11413;BME280;5762;43.256;26.960;2022-09-03T08:20:04;99659.22;;;20.89;100.00
11413;BME280;5762;43.256;26.960;2022-09-03T08:22:34;99657.84;;;20.76;100.00
11413;BME280;5762;43.256;26.960;2022-09-03T08:25:03;99666.06;;;20.98;100.00
11413;BME280;5762;43.256;26.960;2022-09-03T08:27:32;99662.24;;;20.93;100.00
11413;BME280;5762;43.256;26.960;2022-09-03T08:30:01;99664.20;;;20.93;100.00
11413;BME280;5762;43.256;26.960;2022-09-03T08:32:31;99655.80;;;20.95;100.00
11413;BME280;5762;43.256;26.960;2022-09-03T08:35:00;99644.20;;;20.96;100.00
11413;BME280;5762;43.256;26.960;2022-09-03T08:37:29;99651.62;;;21.05;100.00
11413;BME280;5762;43.256;26.960;2022-09-03T08:39:58;99634.14;;;20.94;100.00
11413;BME280;5762;43.256;26.960;2022-09-03T08:44:57;99656.55;;;21.05;100.00
11413;BME280;5762;43.256;26.960;2022-09-03T08:54:59;99652.66;;;20.70;100.00
11413;BME280;5762;43.256;26.960;2022-09-03T08:57:25;99669.58;;;20.86;100.00
11413;BME280;5762;43.256;26.960;2022-09-03T08:59:55;99663.80;;;20.81;100.00
11413;BME280;5762;43.256;26.960;2022-09-03T09:02:25;99670.16;;;20.85;100.00
11413;BME280;5762;43.256;26.960;2022-09-03T09:04:58;99670.26;;;20.66;100.00
11413;BME280;5762;43.256;26.960;2022-09-03T09:27:18;99677.49;;;21.00;100.00
11413;BME280;5762;43.256;26.960;2022-09-03T09:29:48;99676.29;;;21.11;100.00
11413;BME280;5762;43.256;26.960;2022-09-03T09:32:18;99691.67;;;21.02;100.00
11413;BME280;5762;43.256;26.960;2022-09-03T09:34:47;99676.67;;;20.87;100.00
11413;BME280;5762;43.256;26.960;2022-09-03T09:37:17;99692.48;;;20.80;100.00
11413;BME280;5762;43.256;26.960;2022-09-03T09:42:20;99700.39;;;20.95;100.00
11413;BME280;5762;43.256;26.960;2022-09-03T09:44:48;99672.18;;;20.88;100.00
11413;BME280;5762;43.256;26.960;2022-09-03T09:52:16;99674.72;;;20.87;100.00
11413;BME280;5762;43.256;26.960;2022-09-03T09:54:46;99687.43;;;20.95;100.00
11413;BME280;5762;43.256;26.960;2022-09-03T09:57:16;99685.70;;;21.10;100.00
11413;BME280;5762;43.256;26.960;2022-09-03T09:59:44;99687.30;;;21.11;100.00
11413;BME280;5762;43.256;26.960;2022-09-03T10:02:18;99680.64;;;21.25;100.00
11413;BME280;5762;43.256;26.960;2022-09-03T10:04:44;99684.72;;;21.22;100.00
11413;BME280;5762;43.256;26.960;2022-09-03T10:09:43;99682.59;;;21.25;100.00
11413;BME280;5762;43.256;26.960;2022-09-03T10:14:44;99688.97;;;21.19;100.00
11413;BME280;5762;43.256;26.960;2022-09-03T10:17:15;99703.72;;;21.30;100.00
11413;BME280;5762;43.256;26.960;2022-09-03T10:19:47;99693.55;;;21.21;100.00
11413;BME280;5762;43.256;26.960;2022-09-03T10:22:15;99696.89;;;21.34;100.00
11413;BME280;5762;43.256;26.960;2022-09-03T10:27:12;99698.19;;;21.57;100.00
11413;BME280;5762;43.256;26.960;2022-09-03T10:29:42;99710.42;;;21.59;100.00
11413;BME280;5762;43.256;26.960;2022-09-03T10:59:37;99732.62;;;21.87;100.00
11413;BME280;5762;43.256;26.960;2022-09-03T11:07:04;99745.11;;;21.51;100.00
11413;BME280;5762;43.256;26.960;2022-09-03T11:09:35;99738.17;;;21.60;100.00
11413;BME280;5762;43.256;26.960;2022-09-03T11:12:05;99734.16;;;21.28;100.00
11413;BME280;5762;43.256;26.960;2022-09-03T11:14:34;99740.34;;;21.21;100.00
11413;BME280;5762;43.256;26.960;2022-09-03T11:17:04;99747.55;;;21.56;100.00
11413;BME280;5762;43.256;26.960;2022-09-03T11:19:33;99733.86;;;21.46;100.00
11413;BME280;5762;43.256;26.960;2022-09-03T11:22:03;99735.73;;;21.55;100.00
11413;BME280;5762;43.256;26.960;2022-09-03T11:24:32;99740.23;;;21.67;100.00
11413;BME280;5762;43.256;26.960;2022-09-03T11:32:03;99721.41;;;22.16;100.00
11413;BME280;5762;43.256;26.960;2022-09-03T11:34:32;99728.06;;;21.85;100.00
11413;BME280;5762;43.256;26.960;2022-09-03T11:42:00;99747.03;;;21.90;100.00
11413;BME280;5762;43.256;26.960;2022-09-03T11:46:59;99751.53;;;21.88;100.00
11413;BME280;5762;43.256;26.960;2022-09-03T11:49:29;99755.25;;;21.86;100.00
11413;BME280;5762;43.256;26.960;2022-09-03T11:52:00;99756.98;;;21.81;100.00
11413;BME280;5762;43.256;26.960;2022-09-03T11:54:31;99757.93;;;21.53;100.00
11413;BME280;5762;43.256;26.960;2022-09-03T11:59:27;99772.20;;;21.45;100.00
11413;BME280;5762;43.256;26.960;2022-09-03T12:07:01;99767.94;;;21.51;100.00
11413;BME280;5762;43.256;26.960;2022-09-03T12:11:59;99774.36;;;21.72;100.00
11413;BME280;5762;43.256;26.960;2022-09-03T12:16:58;99775.61;;;22.04;100.00
11413;BME280;5762;43.256;26.960;2022-09-03T12:19:27;99774.10;;;21.97;100.00
11413;BME280;5762;43.256;26.960;2022-09-03T12:21:54;99774.10;;;21.97;100.00
11413;BME280;5762;43.256;26.960;2022-09-03T12:24:26;99779.95;;;22.05;100.00
11413;BME280;5762;43.256;26.960;2022-09-03T12:26:53;99767.64;;;21.86;100.00
11413;BME280;5762;43.256;26.960;2022-09-03T12:29:24;99770.26;;;22.02;100.00
11413;BME280;5762;43.256;26.960;2022-09-03T12:31:52;99768.65;;;22.14;100.00
11413;BME280;5762;43.256;26.960;2022-09-03T12:34:22;99774.81;;;22.21;100.00
11413;BME280;5762;43.256;26.960;2022-09-03T12:36:52;99762.55;;;21.88;100.00
11413;BME280;5762;43.256;26.960;2022-09-03T12:39:22;99777.39;;;21.93;100.00
11413;BME280;5762;43.256;26.960;2022-09-03T12:46:58;99794.69;;;21.37;100.00
11413;BME280;5762;43.256;26.960;2022-09-03T12:49:20;99774.41;;;21.62;100.00
11413;BME280;5762;43.256;26.960;2022-09-03T12:54:19;99774.53;;;22.46;100.00
11413;BME280;5762;43.256;26.960;2022-09-03T12:56:52;99774.87;;;22.41;100.00
11413;BME280;5762;43.256;26.960;2022-09-03T12:59:18;99772.25;;;22.55;100.00
11413;BME280;5762;43.256;26.960;2022-09-03T13:01:49;99776.53;;;22.32;100.00
11413;BME280;5762;43.256;26.960;2022-09-03T13:04:19;99781.64;;;22.14;100.00
11413;BME280;5762;43.256;26.960;2022-09-03T13:09:19;99770.95;;;21.56;100.00
11413;BME280;5762;43.256;26.960;2022-09-03T13:14:17;99778.06;;;21.57;100.00
11413;BME280;5762;43.256;26.960;2022-09-03T13:21:47;99791.66;;;21.33;100.00
11413;BME280;5762;43.256;26.960;2022-09-03T13:36:48;99785.97;;;21.45;100.00
11413;BME280;5762;43.256;26.960;2022-09-03T13:39:17;99781.35;;;21.39;100.00
11413;BME280;5762;43.256;26.960;2022-09-03T13:41:45;99783.50;;;21.27;100.00
11413;BME280;5762;43.256;26.960;2022-09-03T14:01:44;99835.48;;;20.57;100.00
11413;BME280;5762;43.256;26.960;2022-09-03T14:19:10;99843.13;;;20.29;100.00
11413;BME280;5762;43.256;26.960;2022-09-03T14:24:09;99850.06;;;20.23;100.00
11413;BME280;5762;43.256;26.960;2022-09-03T14:26:36;99845.48;;;20.01;100.00
11413;BME280;5762;43.256;26.960;2022-09-03T14:34:10;99852.16;;;19.85;100.00
11413;BME280;5762;43.256;26.960;2022-09-03T14:39:08;99854.33;;;19.85;100.00
11413;BME280;5762;43.256;26.960;2022-09-03T14:51:35;99871.78;;;19.77;100.00
11413;BME280;5762;43.256;26.960;2022-09-03T15:01:32;99892.32;;;19.58;100.00
11413;BME280;5762;43.256;26.960;2022-09-03T15:11:31;99894.58;;;19.24;100.00
11413;BME280;5762;43.256;26.960;2022-09-03T15:14:04;99895.34;;;19.31;100.00
11413;BME280;5762;43.256;26.960;2022-09-03T15:26:33;99899.58;;;19.06;100.00
11413;BME280;5762;43.256;26.960;2022-09-03T15:36:26;99903.54;;;19.15;100.00
11413;BME280;5762;43.256;26.960;2022-09-03T15:38:57;99909.98;;;19.07;100.00
11413;BME280;5762;43.256;26.960;2022-09-03T15:41:28;99910.41;;;19.15;100.00
11413;BME280;5762;43.256;26.960;2022-09-03T15:43:57;99915.41;;;19.19;100.00
11413;BME280;5762;43.256;26.960;2022-09-03T15:48:57;99909.69;;;19.02;100.00
11413;BME280;5762;43.256;26.960;2022-09-03T15:58:58;99902.25;;;19.03;100.00
11413;BME280;5762;43.256;26.960;2022-09-03T16:03:55;99910.98;;;19.15;100.00
11413;BME280;5762;43.256;26.960;2022-09-03T16:06:27;99909.73;;;19.12;100.00
11413;BME280;5762;43.256;26.960;2022-09-03T16:21:22;99919.91;;;18.90;100.00
11413;BME280;5762;43.256;26.960;2022-09-03T16:23:53;99933.05;;;18.90;100.00
11413;BME280;5762;43.256;26.960;2022-09-03T16:42:21;99939.53;;;18.98;100.00
11413;BME280;5762;43.256;26.960;2022-09-03T17:08:49;99961.99;;;18.75;100.00
11413;BME280;5762;43.256;26.960;2022-09-03T17:31:19;99994.83;;;18.66;100.00
11413;BME280;5762;43.256;26.960;2022-09-03T17:58:40;100039.49;;;18.36;100.00
11413;BME280;5762;43.256;26.960;2022-09-03T18:06:08;100046.78;;;18.56;100.00
11413;BME280;5762;43.256;26.960;2022-09-03T18:16:17;100054.09;;;18.58;100.00
11413;BME280;5762;43.256;26.960;2022-09-03T18:21:06;100054.12;;;18.70;100.00
11413;BME280;5762;43.256;26.960;2022-09-03T18:26:06;100061.09;;;18.68;100.00
11413;BME280;5762;43.256;26.960;2022-09-03T18:28:36;100066.45;;;18.70;100.00
11413;BME280;5762;43.256;26.960;2022-09-03T18:31:08;100053.95;;;18.91;100.00
11413;BME280;5762;43.256;26.960;2022-09-03T18:33:35;100058.42;;;18.71;100.00
11413;BME280;5762;43.256;26.960;2022-09-03T18:36:05;100059.34;;;18.75;100.00
11413;BME280;5762;43.256;26.960;2022-09-03T18:38:35;100069.16;;;18.52;100.00
11413;BME280;5762;43.256;26.960;2022-09-03T18:41:06;100067.45;;;18.48;100.00
11413;BME280;5762;43.256;26.960;2022-09-03T18:46:07;100071.66;;;18.39;100.00
11413;BME280;5762;43.256;26.960;2022-09-03T18:56:06;100068.59;;;18.53;100.00
11413;BME280;5762;43.256;26.960;2022-09-03T19:01:04;100061.43;;;18.60;100.00
11413;BME280;5762;43.256;26.960;2022-09-03T19:06:04;100069.42;;;18.65;100.00
11413;BME280;5762;43.256;26.960;2022-09-03T19:08:34;100061.66;;;18.61;100.00
11413;BME280;5762;43.256;26.960;2022-09-03T19:13:34;100068.94;;;18.57;100.00
11413;BME280;5762;43.256;26.960;2022-09-03T19:23:33;100073.39;;;18.80;100.00
11413;BME280;5762;43.256;26.960;2022-09-03T19:26:05;100072.59;;;18.80;100.00
11413;BME280;5762;43.256;26.960;2022-09-03T19:28:33;100072.59;;;18.86;100.00
11413;BME280;5762;43.256;26.960;2022-09-03T19:53:29;100101.64;;;18.68;100.00
11413;BME280;5762;43.256;26.960;2022-09-03T19:56:00;100102.33;;;18.65;100.00
11413;BME280;5762;43.256;26.960;2022-09-03T19:58:30;100096.70;;;18.74;100.00
11413;BME280;5762;43.256;26.960;2022-09-03T20:01:00;100101.98;;;18.61;100.00
11413;BME280;5762;43.256;26.960;2022-09-03T20:03:29;100107.77;;;18.53;100.00
11413;BME280;5762;43.256;26.960;2022-09-03T20:06:00;100111.65;;;18.52;100.00
11413;BME280;5762;43.256;26.960;2022-09-03T20:08:29;100116.01;;;18.71;100.00
11413;BME280;5762;43.256;26.960;2022-09-03T20:10:59;100121.29;;;18.64;100.00
11413;BME280;5762;43.256;26.960;2022-09-03T20:13:38;100115.31;;;18.56;100.00
11413;BME280;5762;43.256;26.960;2022-09-03T20:50:53;100153.33;;;18.33;100.00
11413;BME280;5762;43.256;26.960;2022-09-03T20:55:54;100161.64;;;18.25;100.00
11413;BME280;5762;43.256;26.960;2022-09-03T20:58:26;100170.78;;;18.29;100.00
11413;BME280;5762;43.256;26.960;2022-09-03T21:20:54;100168.84;;;17.90;100.00
11413;BME280;5762;43.256;26.960;2022-09-03T21:23:21;100167.61;;;17.73;100.00
11413;BME280;5762;43.256;26.960;2022-09-03T21:30:50;100174.59;;;17.77;100.00
11413;BME280;5762;43.256;26.960;2022-09-03T21:33:19;100165.00;;;17.77;100.00
11413;BME280;5762;43.256;26.960;2022-09-03T21:40:51;100170.05;;;17.81;100.00
11413;BME280;5762;43.256;26.960;2022-09-03T21:50:48;100173.72;;;17.85;100.00
11413;BME280;5762;43.256;26.960;2022-09-03T22:00:44;100189.84;;;18.25;100.00
11413;BME280;5762;43.256;26.960;2022-09-03T22:03:14;100189.02;;;18.19;100.00
11413;BME280;5762;43.256;26.960;2022-09-03T22:15:43;100176.52;;;18.03;100.00
11413;BME280;5762;43.256;26.960;2022-09-03T22:20:42;100177.31;;;17.97;100.00
11413;BME280;5762;43.256;26.960;2022-09-03T22:23:13;100167.05;;;18.00;100.00
11413;BME280;5762;43.256;26.960;2022-09-03T22:28:14;100169.88;;;17.92;100.00